Time;durP1;ratioP1;P1;durP2;ratioP2;P2;SDS_P1;SDS_P2;PMS_P1;PMS_P2;Temp;Humidity;BMP_temperature;BMP_pressure;BME280_temperature;BME280_humidity;BME280_pressure;Samples;Min_cycle;Max_cycle;Signal;HPM_P1;HPM_P2
2023/07/30 00:00:28;;;;;;;4.80;4.18;;;17.00;99.90;;;;;;4888972;29;20076;-66
2023/07/30 00:02:55;;;;;;;6.18;4.63;;;17.00;99.90;;;;;;4889214;29;20129;-66
2023/07/30 00:05:22;;;;;;;6.05;5.47;;;17.00;99.90;;;;;;4886877;29;20376;-67
2023/07/30 00:07:49;;;;;;;4.57;4.18;;;17.00;99.90;;;;;;4888627;29;20044;-67
2023/07/30 00:10:17;;;;;;;5.70;4.65;;;17.00;99.90;;;;;;4886467;29;20048;-66
2023/07/30 00:12:44;;;;;;;5.82;5.35;;;17.00;99.90;;;;;;4888843;29;20051;-71
2023/07/30 00:15:12;;;;;;;4.40;4.00;;;17.00;99.90;;;;;;4888801;29;20048;-67
2023/07/30 00:17:39;;;;;;;4.80;4.32;;;17.00;99.90;;;;;;4885770;29;20052;-66
2023/07/30 00:20:08;;;;;;;7.80;5.38;;;17.00;99.90;;;;;;4888770;29;20218;-66
2023/07/30 00:22:35;;;;;;;5.20;4.70;;;17.00;99.90;;;;;;4888166;29;20052;-67
2023/07/30 00:25:03;;;;;;;4.07;3.78;;;17.00;99.90;;;;;;4888849;29;20053;-66
2023/07/30 00:27:30;;;;;;;4.78;4.43;;;16.90;99.90;;;;;;4888593;29;20053;-67
2023/07/30 00:29:57;;;;;;;6.07;5.20;;;17.00;99.90;;;;;;4889104;29;20083;-66
2023/07/30 00:32:24;;;;;;;5.75;5.13;;;17.00;99.90;;;;;;4888219;29;20049;-66
2023/07/30 00:34:51;;;;;;;5.32;4.82;;;17.00;99.90;;;;;;4888280;29;20052;-66
2023/07/30 00:37:18;;;;;;;5.28;4.78;;;16.90;99.90;;;;;;4888600;29;20052;-66
2023/07/30 00:39:44;;;;;;;7.68;6.13;;;16.90;99.90;;;;;;4887559;29;20108;-66
2023/07/30 00:42:11;;;;;;;6.65;4.72;;;17.00;99.90;;;;;;4888186;29;20400;-66
2023/07/30 00:44:38;;;;;;;7.20;5.35;;;17.00;99.90;;;;;;4888435;29;20075;-66
2023/07/30 00:47:06;;;;;;;8.85;5.53;;;17.00;99.90;;;;;;4888615;29;20048;-67
2023/07/30 00:49:33;;;;;;;5.78;4.93;;;17.00;99.90;;;;;;4888139;29;20638;-67
2023/07/30 00:52:00;;;;;;;8.88;5.72;;;16.90;99.90;;;;;;4863999;29;20052;-66
2023/07/30 00:54:27;;;;;;;5.85;5.28;;;16.90;99.90;;;;;;4886383;29;20096;-66
2023/07/30 00:56:55;;;;;;;8.73;5.10;;;17.00;99.90;;;;;;4888921;29;20063;-67
2023/07/30 00:59:22;;;;;;;6.28;5.65;;;16.90;99.90;;;;;;4891347;29;20048;-67
2023/07/30 01:01:50;;;;;;;6.63;5.32;;;17.00;99.90;;;;;;4891204;29;20053;-67
2023/07/30 01:04:18;;;;;;;6.90;6.30;;;17.00;99.90;;;;;;4889293;29;20084;-66
2023/07/30 01:06:45;;;;;;;6.72;6.05;;;17.00;99.90;;;;;;4888849;29;20368;-70
2023/07/30 01:09:12;;;;;;;7.53;6.35;;;17.00;99.90;;;;;;4889111;29;20060;-66
2023/07/30 01:11:40;;;;;;;5.90;5.40;;;17.00;99.90;;;;;;4892315;29;20048;-66
2023/07/30 01:14:08;;;;;;;6.95;6.13;;;17.00;99.90;;;;;;4891454;29;20063;-66
2023/07/30 01:16:36;;;;;;;7.25;5.68;;;17.00;99.90;;;;;;4892871;29;20774;-67
2023/07/30 01:19:04;;;;;;;5.88;4.70;;;17.00;99.90;;;;;;4890235;29;20051;-66
2023/07/30 01:21:36;;;;;;;6.88;4.45;;;16.90;99.90;;;;;;4889632;29;20143;-66
2023/07/30 01:24:04;;;;;;;5.70;4.85;;;16.90;99.90;;;;;;4887855;29;20513;-67
2023/07/30 01:26:36;;;;;;;5.95;5.10;;;16.90;99.90;;;;;;4875761;29;20071;-67
2023/07/30 01:29:15;;;;;;;5.25;4.85;;;16.90;99.90;;;;;;4889798;29;20063;-68
2023/07/30 01:31:43;;;;;;;5.05;4.55;;;16.90;99.90;;;;;;4867290;29;20499;-66
2023/07/30 01:34:11;;;;;;;7.00;4.32;;;16.90;99.90;;;;;;4890737;29;20048;-67
2023/07/30 01:36:40;;;;;;;6.10;5.35;;;16.90;99.90;;;;;;4875601;29;20068;-67
2023/07/30 01:39:11;;;;;;;6.25;4.70;;;16.80;99.90;;;;;;4887848;29;20506;-66
2023/07/30 01:41:38;;;;;;;5.00;4.40;;;16.80;99.90;;;;;;4891673;29;20045;-66
2023/07/30 01:44:05;;;;;;;4.63;4.22;;;16.80;99.90;;;;;;4891327;29;20179;-67
2023/07/30 01:46:32;;;;;;;5.68;4.03;;;16.80;99.90;;;;;;4890749;29;20474;-66
2023/07/30 01:48:59;;;;;;;5.07;3.97;;;16.80;99.90;;;;;;4891510;29;20475;-67
2023/07/30 01:51:26;;;;;;;3.92;3.63;;;16.80;99.90;;;;;;4890735;29;20051;-67
2023/07/30 01:53:53;;;;;;;4.57;4.18;;;16.80;99.90;;;;;;4889524;29;20368;-67
2023/07/30 01:56:20;;;;;;;5.00;4.55;;;16.80;99.90;;;;;;4871226;29;20487;-67
2023/07/30 01:58:47;;;;;;;4.90;3.90;;;16.80;99.90;;;;;;4889888;29;20139;-66
2023/07/30 02:01:14;;;;;;;5.47;4.38;;;16.80;99.90;;;;;;4870978;29;20056;-66
2023/07/30 02:03:41;;;;;;;4.15;3.55;;;16.80;99.90;;;;;;4889875;29;20651;-66
2023/07/30 02:06:08;;;;;;;4.55;3.92;;;16.80;99.90;;;;;;4889442;29;20060;-66
2023/07/30 02:08:35;;;;;;;7.18;4.38;;;16.80;99.90;;;;;;4889549;29;20108;-66
2023/07/30 02:11:02;;;;;;;4.13;3.83;;;16.80;99.90;;;;;;4890827;29;20056;-66
2023/07/30 02:13:29;;;;;;;5.03;4.53;;;16.80;99.90;;;;;;4888262;29;20048;-66
2023/07/30 02:15:56;;;;;;;5.05;3.95;;;16.70;99.90;;;;;;4869031;29;20060;-67
2023/07/30 02:18:23;;;;;;;6.45;4.93;;;16.80;99.90;;;;;;4889743;29;20570;-66
2023/07/30 02:20:50;;;;;;;4.82;4.07;;;16.80;99.90;;;;;;4890357;29;20088;-66
2023/07/30 02:23:17;;;;;;;4.25;3.85;;;16.70;99.90;;;;;;4889473;29;20234;-67
2023/07/30 02:25:44;;;;;;;4.10;3.70;;;16.70;99.90;;;;;;4890483;29;20072;-66
2023/07/30 02:28:12;;;;;;;5.97;4.50;;;16.70;99.90;;;;;;4890889;29;20049;-66
2023/07/30 02:30:41;;;;;;;4.15;3.70;;;16.70;99.90;;;;;;4890915;29;20045;-66
2023/07/30 02:33:08;;;;;;;6.53;4.75;;;16.70;99.90;;;;;;4888847;29;20152;-68
2023/07/30 02:35:35;;;;;;;5.35;4.70;;;16.70;99.90;;;;;;4884508;29;20053;-67
2023/07/30 02:38:02;;;;;;;4.93;4.43;;;16.70;99.90;;;;;;4889732;29;20036;-66
2023/07/30 02:40:29;;;;;;;4.15;3.75;;;16.70;99.90;;;;;;4888730;29;20585;-66
2023/07/30 02:42:55;;;;;;;9.00;5.30;;;16.70;99.90;;;;;;4886304;29;20124;-66
2023/07/30 02:45:22;;;;;;;9.32;4.53;;;16.70;99.90;;;;;;4889475;29;20064;-66
2023/07/30 02:47:49;;;;;;;4.53;4.10;;;16.70;99.90;;;;;;4866792;29;20060;-67
2023/07/30 02:50:16;;;;;;;10.65;5.13;;;16.70;99.90;;;;;;4873159;29;20744;-67
2023/07/30 02:52:46;;;;;;;4.78;4.22;;;16.70;99.90;;;;;;4890108;29;20048;-66
2023/07/30 02:55:13;;;;;;;5.50;4.53;;;16.60;99.90;;;;;;4889323;29;20131;-66
2023/07/30 02:57:40;;;;;;;7.80;4.60;;;16.60;99.90;;;;;;4889343;29;20055;-67
2023/07/30 03:00:08;;;;;;;5.22;4.72;;;16.60;99.90;;;;;;4890327;29;20052;-67
2023/07/30 03:02:35;;;;;;;6.25;4.90;;;16.60;99.90;;;;;;4867659;29;20080;-67
2023/07/30 03:05:03;;;;;;;5.72;5.10;;;16.50;99.90;;;;;;4872971;29;20135;-67
2023/07/30 03:07:30;;;;;;;5.30;4.70;;;16.50;99.90;;;;;;4889423;29;20079;-66
2023/07/30 03:09:57;;;;;;;5.95;5.25;;;16.50;99.90;;;;;;4889647;29;20554;-67
2023/07/30 03:12:24;;;;;;;6.53;5.93;;;16.50;99.90;;;;;;4889730;29;20040;-66
2023/07/30 03:14:51;;;;;;;6.00;5.40;;;16.50;99.90;;;;;;4888378;29;20174;-66
2023/07/30 03:17:18;;;;;;;7.40;6.03;;;16.50;99.90;;;;;;4888625;29;20667;-67
2023/07/30 03:19:46;;;;;;;5.28;4.82;;;16.50;99.90;;;;;;4888010;29;20120;-66
2023/07/30 03:22:13;;;;;;;6.38;5.60;;;16.50;99.90;;;;;;4889609;29;20041;-67
2023/07/30 03:24:40;;;;;;;6.55;5.97;;;16.50;99.90;;;;;;4888312;29;20530;-66
2023/07/30 03:27:07;;;;;;;6.10;5.50;;;16.50;99.90;;;;;;4890618;29;20052;-67
2023/07/30 03:29:33;;;;;;;12.05;7.00;;;16.50;99.90;;;;;;4882715;29;20048;-66
2023/07/30 03:32:00;;;;;;;7.38;6.03;;;16.50;99.90;;;;;;4873248;29;20140;-66
2023/07/30 03:34:27;;;;;;;6.20;5.28;;;16.50;99.90;;;;;;4888918;29;20068;-67
2023/07/30 03:36:54;;;;;;;6.68;5.85;;;16.50;99.90;;;;;;4872612;29;20073;-67
2023/07/30 03:39:22;;;;;;;6.97;6.22;;;16.40;99.90;;;;;;4888798;29;20041;-66
2023/07/30 03:41:49;;;;;;;6.65;5.55;;;16.40;99.90;;;;;;4889209;29;20107;-67
2023/07/30 03:44:15;;;;;;;6.25;5.65;;;16.40;99.90;;;;;;4887769;29;20179;-67
2023/07/30 03:46:43;;;;;;;7.25;5.47;;;16.40;99.90;;;;;;4889435;29;20053;-67
2023/07/30 03:49:10;;;;;;;6.97;6.38;;;16.30;99.90;;;;;;4883236;29;20128;-67
2023/07/30 03:51:40;;;;;;;5.72;4.97;;;16.30;99.90;;;;;;4872439;29;20055;-66
2023/07/30 03:54:07;;;;;;;7.10;6.45;;;16.20;99.90;;;;;;4886433;29;20139;-67
2023/07/30 03:56:34;;;;;;;6.05;5.43;;;16.20;99.90;;;;;;4889070;29;20047;-67
2023/07/30 03:59:01;;;;;;;6.90;6.03;;;16.20;99.90;;;;;;4866437;29;20076;-67
2023/07/30 04:01:30;;;;;;;7.82;6.13;;;16.20;99.90;;;;;;4888664;29;20569;-67
2023/07/30 04:03:57;;;;;;;6.95;6.25;;;16.20;99.90;;;;;;4887520;29;20585;-67
2023/07/30 04:06:24;;;;;;;7.05;6.22;;;16.20;99.90;;;;;;4888674;29;20040;-66
2023/07/30 04:08:51;;;;;;;6.72;6.07;;;16.20;99.90;;;;;;4888104;29;20059;-67
2023/07/30 04:11:18;;;;;;;6.35;5.75;;;16.20;99.90;;;;;;4889619;29;20040;-67
2023/07/30 04:13:44;;;;;;;6.20;5.70;;;16.20;99.90;;;;;;4888320;29;20499;-67
2023/07/30 04:16:11;;;;;;;8.85;5.45;;;16.20;99.90;;;;;;4889304;29;20048;-66
2023/07/30 04:18:38;;;;;;;6.82;6.13;;;16.20;99.90;;;;;;4889473;29;20060;-68
2023/07/30 04:21:05;;;;;;;5.65;5.15;;;16.20;99.90;;;;;;4892013;29;20113;-66
2023/07/30 04:23:32;;;;;;;6.25;5.65;;;16.20;99.90;;;;;;4888087;29;20124;-66
2023/07/30 04:25:59;;;;;;;8.68;5.60;;;16.20;99.90;;;;;;4888258;29;20095;-67
2023/07/30 04:28:26;;;;;;;5.88;5.38;;;16.10;99.90;;;;;;4887306;29;20812;-66
2023/07/30 04:30:53;;;;;;;6.70;6.05;;;16.10;99.90;;;;;;4864844;29;20568;-67
2023/07/30 04:33:20;;;;;;;5.72;5.22;;;16.10;99.90;;;;;;4892074;29;20061;-67
2023/07/30 04:35:48;;;;;;;6.15;5.55;;;16.00;99.90;;;;;;4876840;29;20238;-67
2023/07/30 04:38:15;;;;;;;6.55;5.75;;;16.00;99.90;;;;;;4891323;29;20045;-66
2023/07/30 04:40:42;;;;;;;7.10;6.50;;;16.00;99.90;;;;;;4893414;29;20555;-67
2023/07/30 04:43:08;;;;;;;12.05;5.82;;;16.00;99.90;;;;;;4892608;29;20467;-67
2023/07/30 04:45:36;;;;;;;5.63;5.15;;;16.00;99.90;;;;;;4885414;29;20389;-66
2023/07/30 04:48:03;;;;;;;7.88;7.05;;;15.90;99.90;;;;;;4893612;29;20104;-66
2023/07/30 04:50:30;;;;;;;6.00;5.38;;;15.90;99.90;;;;;;4876414;29;20663;-66
2023/07/30 04:52:58;;;;;;;6.80;5.13;;;15.90;99.90;;;;;;4891725;29;20041;-67
2023/07/30 04:55:25;;;;;;;5.57;5.07;;;15.90;99.90;;;;;;4889861;29;20063;-67
2023/07/30 04:57:52;;;;;;;8.35;6.45;;;15.90;99.90;;;;;;4875341;29;20104;-66
2023/07/30 05:00:19;;;;;;;7.03;6.38;;;15.90;99.90;;;;;;4892243;29;20056;-67
2023/07/30 05:02:46;;;;;;;6.70;5.82;;;15.90;99.90;;;;;;4892441;29;20041;-67
2023/07/30 05:05:13;;;;;;;6.25;5.65;;;15.90;99.90;;;;;;4891866;29;20111;-66
2023/07/30 05:07:40;;;;;;;5.95;5.43;;;15.80;99.90;;;;;;4891273;29;20068;-67
2023/07/30 05:10:09;;;;;;;6.55;5.95;;;15.90;99.90;;;;;;4891339;29;20045;-66
2023/07/30 05:12:37;;;;;;;5.20;4.75;;;15.90;99.90;;;;;;4891920;29;20052;-65
2023/07/30 05:15:05;;;;;;;8.40;6.18;;;15.90;99.90;;;;;;4891816;29;20069;-66
2023/07/30 05:17:32;;;;;;;6.85;6.25;;;15.90;99.90;;;;;;4891397;29;20040;-67
2023/07/30 05:19:59;;;;;;;12.55;5.57;;;15.90;99.90;;;;;;4892348;29;20040;-65
2023/07/30 05:22:26;;;;;;;6.93;6.22;;;15.90;99.90;;;;;;4891571;29;20088;-66
2023/07/30 05:24:53;;;;;;;6.22;5.70;;;16.00;99.90;;;;;;4891379;29;20053;-67
2023/07/30 05:27:20;;;;;;;8.18;6.65;;;16.00;99.90;;;;;;4891373;29;20135;-65
2023/07/30 05:29:47;;;;;;;8.30;5.78;;;16.00;99.90;;;;;;4891850;29;20119;-66
2023/07/30 05:32:15;;;;;;;7.55;5.65;;;16.00;99.90;;;;;;4891246;29;20056;-66
2023/07/30 05:34:42;;;;;;;6.53;5.93;;;16.00;99.90;;;;;;4891004;29;20124;-66
2023/07/30 05:37:09;;;;;;;9.23;6.70;;;16.00;99.90;;;;;;4891301;29;20067;-65
2023/07/30 05:39:36;;;;;;;8.35;7.43;;;16.00;99.90;;;;;;4890884;29;20040;-65
2023/07/30 05:42:03;;;;;;;7.95;7.15;;;16.00;99.90;;;;;;4890601;29;20037;-65
2023/07/30 05:44:30;;;;;;;7.57;6.80;;;16.00;99.90;;;;;;4891173;29;20041;-65
2023/07/30 05:46:57;;;;;;;8.52;7.07;;;16.00;99.90;;;;;;4891118;29;20056;-65
2023/07/30 05:49:24;;;;;;;6.45;5.85;;;16.00;99.90;;;;;;4888732;29;20040;-65
2023/07/30 05:51:51;;;;;;;7.38;6.68;;;16.10;99.90;;;;;;4892567;29;20052;-65
2023/07/30 05:54:18;;;;;;;8.98;5.80;;;16.10;99.90;;;;;;4890048;29;20143;-66
2023/07/30 05:56:45;;;;;;;8.57;7.22;;;16.20;99.90;;;;;;4888415;29;20048;-66
2023/07/30 05:59:12;;;;;;;7.45;6.53;;;16.20;99.90;;;;;;4891103;29;20072;-65
2023/07/30 06:01:43;;;;;;;8.43;7.63;;;16.20;99.90;;;;;;4889641;29;20052;-66
2023/07/30 06:04:10;;;;;;;7.55;6.85;;;16.20;99.90;;;;;;4892025;29;20049;-66
2023/07/30 06:06:37;;;;;;;7.10;6.50;;;16.30;99.90;;;;;;4891294;29;20065;-65
2023/07/30 06:09:04;;;;;;;6.35;5.40;;;16.30;99.90;;;;;;4889148;29;20076;-65
2023/07/30 06:11:30;;;;;;;7.05;5.65;;;16.40;99.90;;;;;;4892013;29;20044;-66
2023/07/30 06:13:57;;;;;;;9.88;8.52;;;16.40;99.90;;;;;;4890073;29;20056;-65
2023/07/30 06:16:24;;;;;;;6.63;6.00;;;16.40;99.90;;;;;;4891320;29;20147;-66
2023/07/30 06:18:51;;;;;;;6.72;6.13;;;16.50;99.90;;;;;;4890465;29;20044;-67
2023/07/30 06:21:18;;;;;;;7.47;6.75;;;16.50;99.90;;;;;;4890569;29;20041;-65
2023/07/30 06:23:45;;;;;;;6.55;5.88;;;16.70;99.90;;;;;;4888474;29;20776;-67
2023/07/30 06:26:12;;;;;;;5.82;5.32;;;16.70;99.90;;;;;;4890936;29;20088;-65
2023/07/30 06:28:39;;;;;;;7.95;5.72;;;16.70;99.90;;;;;;4890480;29;20368;-67
2023/07/30 06:31:06;;;;;;;6.38;5.80;;;16.80;99.90;;;;;;4890140;29;20514;-66
2023/07/30 06:33:33;;;;;;;6.30;5.53;;;16.90;99.90;;;;;;4888590;29;20686;-66
2023/07/30 06:36:00;;;;;;;6.68;5.53;;;16.90;99.90;;;;;;4888378;29;20531;-66
2023/07/30 06:38:27;;;;;;;8.63;7.10;;;16.90;99.90;;;;;;4887733;29;20063;-66
2023/07/30 06:40:54;;;;;;;7.97;5.53;;;16.90;99.90;;;;;;4889652;29;20101;-66
2023/07/30 06:43:20;;;;;;;7.72;5.55;;;16.90;99.90;;;;;;4887731;29;20048;-66
2023/07/30 06:45:48;;;;;;;5.30;4.85;;;17.00;99.90;;;;;;4889552;29;20052;-67
2023/07/30 06:48:18;;;;;;;5.18;4.78;;;17.00;99.90;;;;;;4888341;29;20453;-66
2023/07/30 06:50:45;;;;;;;5.20;4.78;;;17.00;99.90;;;;;;4889779;29;20115;-65
2023/07/30 06:53:12;;;;;;;5.47;4.97;;;16.90;99.90;;;;;;4886080;29;20097;-65
2023/07/30 06:55:38;;;;;;;5.88;5.00;;;17.00;99.90;;;;;;4887211;29;20072;-66
2023/07/30 06:58:05;;;;;;;4.95;4.28;;;17.00;99.90;;;;;;4888617;29;20076;-66
2023/07/30 07:00:32;;;;;;;5.38;4.88;;;17.10;99.90;;;;;;4890116;29;20072;-65
2023/07/30 07:02:59;;;;;;;5.88;5.38;;;17.10;99.90;;;;;;4888610;29;20417;-66
2023/07/30 07:05:26;;;;;;;5.65;5.13;;;17.20;99.90;;;;;;4889339;29;20068;-65
2023/07/30 07:07:53;;;;;;;5.45;4.95;;;17.20;99.90;;;;;;4887497;29;20056;-66
2023/07/30 07:10:20;;;;;;;6.97;6.25;;;17.30;99.90;;;;;;4887224;29;20045;-67
2023/07/30 07:12:47;;;;;;;6.35;5.85;;;17.30;99.90;;;;;;4889458;29;20055;-66
2023/07/30 07:15:14;;;;;;;7.00;5.75;;;17.40;99.90;;;;;;4888316;29;20456;-66
2023/07/30 07:17:41;;;;;;;5.32;4.90;;;17.50;99.90;;;;;;4888640;29;20088;-65
2023/07/30 07:20:08;;;;;;;6.00;5.50;;;17.60;99.90;;;;;;4889332;29;20610;-66
2023/07/30 07:22:35;;;;;;;5.47;4.82;;;17.70;99.90;;;;;;4887290;29;20507;-67
2023/07/30 07:25:02;;;;;;;5.50;5.00;;;17.70;99.90;;;;;;4888854;29;20048;-66
2023/07/30 07:27:29;;;;;;;6.15;5.55;;;17.90;99.90;;;;;;4887811;29;20047;-67
2023/07/30 07:29:56;;;;;;;6.63;5.93;;;17.90;99.90;;;;;;4889886;29;20135;-66
2023/07/30 07:32:23;;;;;;;5.75;5.15;;;17.80;99.90;;;;;;4851674;29;1091805;-66
2023/07/30 07:34:50;;;;;;;6.03;5.53;;;17.90;99.90;;;;;;4889689;29;20063;-65
2023/07/30 07:37:18;;;;;;;5.97;5.00;;;17.90;99.90;;;;;;4889647;29;20055;-66
2023/07/30 07:39:46;;;;;;;7.38;5.68;;;18.00;99.90;;;;;;4888772;29;20059;-67
2023/07/30 07:42:13;;;;;;;7.53;5.05;;;18.00;99.90;;;;;;4887098;29;20097;-65
2023/07/30 07:44:40;;;;;;;5.95;4.53;;;18.00;99.90;;;;;;4889251;29;20045;-66
2023/07/30 07:47:07;;;;;;;5.68;3.88;;;18.10;99.90;;;;;;4888528;29;20115;-66
2023/07/30 07:49:34;;;;;;;5.07;4.57;;;18.10;99.90;;;;;;4888546;29;20048;-67
2023/07/30 07:52:01;;;;;;;5.20;4.72;;;18.20;99.90;;;;;;4890304;29;20048;-66
2023/07/30 07:54:27;;;;;;;6.53;3.80;;;18.30;99.90;;;;;;4887131;29;20044;-67
2023/07/30 07:56:54;;;;;;;5.47;4.35;;;18.40;99.90;;;;;;4889348;29;20144;-66
2023/07/30 07:59:21;;;;;;;5.28;4.80;;;18.40;99.90;;;;;;4889185;29;20037;-66
2023/07/30 08:01:48;;;;;;;5.60;5.10;;;18.40;99.90;;;;;;4888959;29;20491;-67
2023/07/30 08:04:15;;;;;;;4.75;4.18;;;18.30;99.90;;;;;;4889081;29;20060;-66
2023/07/30 08:06:42;;;;;;;6.07;4.55;;;18.30;99.90;;;;;;4889572;29;20184;-66
2023/07/30 08:09:10;;;;;;;6.35;4.72;;;18.30;99.90;;;;;;4887656;29;20144;-66
2023/07/30 08:11:36;;;;;;;4.72;4.32;;;18.20;99.90;;;;;;4889474;29;20131;-65
2023/07/30 08:14:04;;;;;;;12.35;6.35;;;18.10;99.90;;;;;;4888591;29;20044;-65
2023/07/30 08:16:30;;;;;;;6.30;5.15;;;17.90;99.90;;;;;;4888782;29;20443;-65
2023/07/30 08:18:57;;;;;;;9.45;5.38;;;17.90;99.90;;;;;;4888550;29;20052;-65
2023/07/30 08:21:25;;;;;;;5.57;5.07;;;17.80;99.90;;;;;;4872106;29;20099;-66
2023/07/30 08:23:51;;;;;;;5.45;4.95;;;17.80;99.90;;;;;;4885368;29;20104;-65
2023/07/30 08:26:18;;;;;;;6.47;5.88;;;17.80;99.90;;;;;;4887546;29;20044;-66
2023/07/30 08:28:45;;;;;;;5.70;5.20;;;17.80;99.90;;;;;;4888057;29;20100;-64
2023/07/30 08:31:12;;;;;;;8.05;5.97;;;17.90;99.90;;;;;;4887963;29;20044;-66
2023/07/30 08:33:39;;;;;;;6.93;5.57;;;17.90;99.90;;;;;;4888206;29;20080;-67
2023/07/30 08:36:06;;;;;;;5.25;4.75;;;17.90;99.90;;;;;;4888862;29;20080;-67
2023/07/30 08:38:33;;;;;;;5.80;5.18;;;17.90;99.90;;;;;;4887558;29;20044;-65
2023/07/30 08:41:00;;;;;;;7.50;6.07;;;17.90;99.90;;;;;;4889143;29;20064;-64
2023/07/30 08:43:27;;;;;;;6.25;5.53;;;17.80;99.90;;;;;;4887437;29;20484;-65
2023/07/30 08:45:54;;;;;;;6.10;5.60;;;17.80;99.90;;;;;;4888381;29;20155;-66
2023/07/30 08:48:20;;;;;;;7.68;5.97;;;17.90;99.90;;;;;;4888361;29;20052;-66
2023/07/30 08:50:49;;;;;;;6.22;5.45;;;17.90;99.90;;;;;;4886687;29;20072;-66
2023/07/30 08:53:17;;;;;;;6.32;5.82;;;18.10;99.90;;;;;;4886818;29;20808;-66
2023/07/30 08:55:45;;;;;;;7.88;5.82;;;18.30;99.90;;;;;;4889247;29;20048;-65
2023/07/30 08:58:13;;;;;;;6.75;6.15;;;18.30;99.90;;;;;;4888587;29;20445;-65
2023/07/30 09:00:42;;;;;;;6.60;5.47;;;18.40;99.90;;;;;;4886687;29;20108;-65
2023/07/30 09:03:10;;;;;;;5.43;4.97;;;18.50;99.90;;;;;;4888968;29;20050;-67
2023/07/30 09:05:38;;;;;;;5.47;4.97;;;18.60;99.90;;;;;;4887544;29;20052;-66
2023/07/30 09:08:06;;;;;;;7.70;6.10;;;18.60;99.90;;;;;;4888068;29;20786;-67
2023/07/30 09:10:33;;;;;;;7.10;6.25;;;18.70;99.90;;;;;;4888146;29;20036;-66
2023/07/30 09:13:02;;;;;;;6.82;4.68;;;18.90;99.90;;;;;;4889476;29;20045;-66
2023/07/30 09:15:37;;;;;;;6.30;5.70;;;19.10;99.90;;;;;;4888602;29;20044;-65
2023/07/30 09:18:05;;;;;;;7.30;6.70;;;19.30;99.90;;;;;;4889629;29;20047;-65
2023/07/30 09:20:40;;;;;;;5.95;5.45;;;19.50;99.90;;;;;;4890521;29;20136;-66
2023/07/30 09:23:08;;;;;;;6.55;5.95;;;19.60;99.90;;;;;;4891384;29;20116;-67
2023/07/30 09:25:36;;;;;;;7.70;5.15;;;19.80;99.90;;;;;;4891400;29;20071;-66
2023/07/30 09:28:04;;;;;;;7.13;6.05;;;19.70;99.90;;;;;;4892009;29;20096;-66
2023/07/30 09:30:33;;;;;;;8.70;6.38;;;19.50;99.90;;;;;;4891469;29;20048;-65
2023/07/30 09:33:00;;;;;;;7.68;6.97;;;19.40;99.90;;;;;;4890755;29;20112;-66
2023/07/30 09:35:27;;;;;;;8.43;7.40;;;19.40;99.90;;;;;;4891083;29;20060;-65
2023/07/30 09:38:02;;;;;;;9.63;8.65;;;19.30;99.90;;;;;;4891234;29;20108;-65
2023/07/30 09:40:36;;;;;;;9.57;7.25;;;19.20;99.90;;;;;;4889331;29;20499;-66
2023/07/30 09:43:04;;;;;;;8.55;7.75;;;19.30;99.90;;;;;;4891844;29;20048;-67
2023/07/30 09:45:36;;;;;;;10.68;9.45;;;19.30;99.90;;;;;;4890504;29;20547;-66
2023/07/30 09:48:05;;;;;;;9.57;8.07;;;19.40;99.90;;;;;;4891011;29;20904;-66
2023/07/30 09:50:36;;;;;;;7.70;7.00;;;19.40;99.90;;;;;;4892225;29;20037;-66
2023/07/30 09:53:04;;;;;;;8.07;7.38;;;19.50;99.90;;;;;;4870658;29;20055;-66
2023/07/30 09:55:31;;;;;;;8.88;7.55;;;19.50;99.90;;;;;;4891684;29;20063;-65
2023/07/30 09:57:58;;;;;;;6.28;5.68;;;19.30;99.90;;;;;;4890543;29;20401;-66
2023/07/30 10:00:26;;;;;;;12.27;9.48;;;19.20;99.90;;;;;;4890830;29;20128;-65
2023/07/30 10:02:55;;;;;;;9.63;8.05;;;19.20;99.90;;;;;;4889818;29;20100;-66
2023/07/30 10:05:26;;;;;;;9.38;6.85;;;19.20;99.90;;;;;;4890924;29;20044;-66
2023/07/30 10:07:59;;;;;;;8.20;7.50;;;19.20;99.90;;;;;;4888513;29;20055;-65
2023/07/30 10:10:28;;;;;;;7.47;6.82;;;19.40;99.90;;;;;;4890667;29;20049;-66
2023/07/30 10:13:00;;;;;;;11.48;7.60;;;19.50;99.90;;;;;;4891504;29;20068;-67
2023/07/30 10:15:27;;;;;;;6.82;6.22;;;19.40;99.90;;;;;;4890858;29;20136;-66
2023/07/30 10:17:57;;;;;;;9.30;7.50;;;19.30;99.90;;;;;;4890133;29;20068;-66
2023/07/30 10:20:29;;;;;;;14.80;8.60;;;19.40;99.90;;;;;;4890847;29;20041;-66
2023/07/30 10:22:58;;;;;;;8.02;7.22;;;19.40;99.90;;;;;;4888881;29;20056;-66
2023/07/30 10:25:45;;;;;;;9.38;7.65;;;19.40;99.90;;;;;;4889182;29;20087;-66
2023/07/30 10:28:31;;;;;;;7.03;6.40;;;19.50;99.90;;;;;;4891075;29;20045;-66
2023/07/30 10:31:01;;;;;;;7.43;6.72;;;19.60;99.90;;;;;;4889173;29;20067;-66
2023/07/30 10:33:51;;;;;;;6.45;5.88;;;19.80;99.90;;;;;;4887655;29;20052;-66
2023/07/30 10:36:33;;;;;;;5.05;4.65;;;20.20;99.90;;;;;;4891255;29;20044;-66
2023/07/30 10:39:12;;;;;;;5.55;5.03;;;20.50;99.90;;;;;;4889571;29;20056;-67
2023/07/30 10:41:38;;;;;;;5.60;5.10;;;20.70;99.90;;;;;;4890248;29;20045;-66
2023/07/30 10:44:19;;;;;;;5.38;4.88;;;20.80;99.90;;;;;;4889103;29;20040;-67
2023/07/30 10:46:46;;;;;;;7.22;4.93;;;20.90;99.90;;;;;;4890180;29;20132;-68
2023/07/30 10:49:13;;;;;;;6.18;5.65;;;20.70;99.90;;;;;;4889100;29;20072;-67
2023/07/30 10:51:40;;;;;;;7.15;6.00;;;20.50;99.90;;;;;;4889534;29;20068;-66
2023/07/30 10:54:10;;;;;;;7.43;6.82;;;20.50;99.90;;;;;;4889165;29;20059;-66
2023/07/30 10:56:38;;;;;;;7.20;6.53;;;20.30;99.90;;;;;;4890683;29;20538;-66
2023/07/30 10:59:07;;;;;;;7.03;6.43;;;20.30;99.90;;;;;;4889934;29;20234;-66
2023/07/30 11:01:41;;;;;;;6.63;5.95;;;20.30;99.90;;;;;;4890245;29;20136;-67
2023/07/30 11:04:17;;;;;;;6.30;4.95;;;20.50;99.90;;;;;;4888185;29;20550;-67
2023/07/30 11:06:49;;;;;;;5.35;4.97;;;20.80;99.90;;;;;;4890839;29;20123;-67
2023/07/30 11:09:25;;;;;;;6.38;5.05;;;20.90;99.90;;;;;;4887356;29;20407;-66
2023/07/30 11:11:55;;;;;;;6.30;5.80;;;21.00;99.90;;;;;;4889757;29;20621;-68
2023/07/30 11:14:25;;;;;;;6.70;6.00;;;21.00;99.90;;;;;;4886928;29;20709;-66
2023/07/30 11:17:00;;;;;;;7.38;6.78;;;21.00;99.90;;;;;;4887048;29;20782;-67
2023/07/30 11:19:28;;;;;;;7.55;6.95;;;20.90;99.90;;;;;;4888453;29;20570;-67
2023/07/30 11:21:57;;;;;;;5.22;4.68;;;20.70;99.90;;;;;;4890556;29;20052;-66
2023/07/30 11:24:37;;;;;;;3.97;3.58;;;20.70;99.90;;;;;;4888231;29;20056;-68
2023/07/30 11:27:04;;;;;;;4.55;3.90;;;20.80;99.90;;;;;;4889758;29;20059;-66
2023/07/30 11:29:31;;;;;;;3.72;3.42;;;21.10;99.90;;;;;;4887712;29;20068;-66
2023/07/30 11:31:59;;;;;;;6.20;4.18;;;21.30;99.90;;;;;;4888928;29;20053;-66
2023/07/30 11:34:27;;;;;;;3.75;3.45;;;21.50;99.90;;;;;;4889078;29;20040;-67
2023/07/30 11:36:55;;;;;;;4.15;3.75;;;21.60;99.90;;;;;;4889663;29;20112;-67
2023/07/30 11:39:24;;;;;;;5.78;3.88;;;21.80;99.90;;;;;;4887885;29;20051;-66
2023/07/30 11:41:51;;;;;;;5.50;5.00;;;21.90;99.90;;;;;;4889107;29;20080;-67
2023/07/30 11:44:30;;;;;;;6.07;5.57;;;21.80;99.90;;;;;;4888982;29;20058;-66
2023/07/30 11:46:57;;;;;;;5.38;4.88;;;21.40;99.90;;;;;;4888987;29;20045;-66
2023/07/30 11:49:24;;;;;;;4.20;3.80;;;21.30;99.90;;;;;;4889267;29;20139;-68
2023/07/30 11:52:10;;;;;;;6.55;4.63;;;21.40;99.90;;;;;;4889494;29;20048;-66
2023/07/30 11:54:37;;;;;;;4.82;4.43;;;21.50;99.90;;;;;;4888217;29;20540;-67
2023/07/30 11:57:04;;;;;;;4.22;3.83;;;21.40;99.90;;;;;;4886936;29;20104;-66
2023/07/30 11:59:32;;;;;;;4.10;3.80;;;21.50;99.90;;;;;;4888947;29;20056;-66
2023/07/30 12:02:00;;;;;;;4.80;4.40;;;21.80;99.90;;;;;;4889670;29;20045;-66
2023/07/30 12:04:31;;;;;;;4.57;4.18;;;21.90;99.90;;;;;;4888097;29;20136;-66
2023/07/30 12:06:58;;;;;;;4.30;3.95;;;21.80;99.90;;;;;;4889943;29;20044;-66
2023/07/30 12:09:30;;;;;;;3.95;3.65;;;22.00;99.90;;;;;;4887050;29;20077;-67
2023/07/30 12:11:59;;;;;;;4.07;3.67;;;22.10;99.90;;;;;;4889287;29;20060;-65
2023/07/30 12:14:33;;;;;;;3.45;3.15;;;22.20;99.90;;;;;;4886611;29;20041;-68
2023/07/30 12:17:00;;;;;;;3.78;3.40;;;22.40;99.90;;;;;;4889226;29;20082;-67
2023/07/30 12:19:27;;;;;;;4.00;3.70;;;22.40;99.90;;;;;;4888987;29;20485;-66
2023/07/30 12:21:54;;;;;;;5.05;4.65;;;22.50;99.90;;;;;;4890425;29;20056;-68
2023/07/30 12:24:22;;;;;;;3.13;2.92;;;22.50;99.90;;;;;;4887206;29;20052;-67
2023/07/30 12:26:49;;;;;;;3.60;3.30;;;22.50;99.90;;;;;;4888335;29;20045;-67
2023/07/30 12:29:19;;;;;;;5.88;3.22;;;22.60;99.90;;;;;;4886612;29;20357;-67
2023/07/30 12:31:47;;;;;;;4.60;4.03;;;22.90;99.90;;;;;;4889301;29;20066;-67
2023/07/30 12:34:15;;;;;;;3.42;3.13;;;23.00;99.90;;;;;;4888524;29;20040;-66
2023/07/30 12:36:42;;;;;;;4.28;3.88;;;23.00;99.90;;;;;;4888209;29;20101;-66
2023/07/30 12:39:09;;;;;;;4.53;3.95;;;22.60;99.90;;;;;;4863573;29;20048;-66
2023/07/30 12:41:36;;;;;;;4.57;4.25;;;22.40;99.90;;;;;;4889868;29;20084;-66
2023/07/30 12:44:04;;;;;;;7.13;3.60;;;22.20;99.90;;;;;;4888752;29;20052;-67
2023/07/30 12:46:32;;;;;;;5.90;5.13;;;22.30;99.90;;;;;;4887940;29;20107;-68
2023/07/30 12:49:04;;;;;;;3.75;3.45;;;22.30;99.90;;;;;;4887058;29;20507;-66